• Join FlightAware (Why Join?)
  • Login
  • US Flag 
02:18AM EDT


 

Airport Tracker/Info


-or-


 

Live Flight TrackerFlight Track Log ✈ N251NG ✈ 29-Apr-2013 ✈ KLOZ - KTOL

Flight Track Log - Related Links

Times and Time Zones

All times are in EDT time to prevent confusion due to time zone crossing. See the N251NG flight status page for this flight to view local times or setup timezone preferences in your user account.

Time Position Orientation Groundspeed Altitude Reporting Facility
EDT Latitude Longitude Course Direction KTS MPH feet Rate Location/Type
09:12AM 37.1181 -84.1250 329° Northwest 151 174 3,600  Level Indianapolis Center
09:13AM 37.1625 -84.1367 348° North 162 186 5,500 1,740 Climbing Indianapolis Center
09:14AM 37.2100 -84.1394 357° North 167 192 7,300 1,740 Climbing Indianapolis Center
09:15AM 37.2592 -84.1439 356° North 173 199 9,100 1,740 Climbing Indianapolis Center
09:16AM 37.3967 -84.1000 North  Level FlightAware Approximate
09:16AM 37.3072 -84.1475 357° North 173 199 10,900  Level Indianapolis Center
09:17AM 37.3642 -84.1533 355° North 175 201 12,800 1,560 Climbing Indianapolis Center
09:18AM 37.4147 -84.1572 357° North 180 207 14,200 1,380 Climbing Indianapolis Center
09:19AM 37.4661 -84.1628 355° North 184 212 15,700 1,320 Climbing Indianapolis Center
09:20AM 37.5181 -84.1672 356° North 185 213 17,000 1,140 Climbing Indianapolis Center
09:21AM 37.5706 -84.1711 357° North 188 216 18,100 1,020 Climbing Indianapolis Center
09:22AM 37.6247 -84.1761 356° North 193 222 19,200 1,200 Climbing Indianapolis Center
09:23AM 37.6883 -84.1831 355° North 194 223 20,600 1,140 Climbing Indianapolis Center
09:24AM 37.7444 -84.1872 357° North 198 228 21,600 960 Climbing Indianapolis Center
09:25AM 37.8008 -84.1919 356° North 200 230 22,600 960 Climbing Indianapolis Center
09:27AM 37.8564 -84.1975 355° North 201 231 23,600 900 Climbing Indianapolis Center
09:28AM 37.9114 -84.2017 357° North 200 230 24,500 660 Climbing Indianapolis Center
09:29AM 37.9686 -84.2075 355° North 205 236 25,000 240 Climbing Indianapolis Center
09:30AM 38.0444 -84.2122 357° North 235 270 25,000  Level Indianapolis Center
09:31AM 38.1147 -84.2200 355° North 252 290 25,000  Level Indianapolis Center
09:32AM 38.1867 -84.2253 357° North 258 297 25,000  Level Indianapolis Center
09:33AM 38.2592 -84.2331 355° North 261 300 25,000  Level Indianapolis Center
09:34AM 38.3314 -84.2389 356° North 261 300 25,000  Level Indianapolis Center
09:35AM 38.4047 -84.2456 356° North 262 302 25,000  Level Indianapolis Center
09:36AM 38.4897 -84.2539 356° North 262 302 25,000  Level Indianapolis Center
09:37AM 38.5628 -84.2600 356° North 263 303 25,000  Level Indianapolis Center
09:38AM 38.6353 -84.2678 355° North 261 300 25,000  Level Indianapolis Center
09:39AM 38.7100 -84.2747 356° North 266 306 25,000  Level Indianapolis Center
09:40AM 38.7839 -84.2806 356° North 265 305 25,000  Level Indianapolis Center
09:41AM 38.8575 -84.2875 356° North 263 303 25,000  Level Indianapolis Center
09:42AM 38.9436 -84.2950 356° North 264 304 25,000  Level Indianapolis Center
09:43AM 39.0175 -84.3022 356° North 264 304 25,000  Level Indianapolis Center
09:44AM 39.0919 -84.3092 356° North 265 305 25,000  Level Indianapolis Center
09:45AM 39.1661 -84.3153 356° North 266 306 25,000  Level Indianapolis Center
09:46AM 39.2406 -84.3239 355° North 264 304 25,000  Level Indianapolis Center
09:47AM 39.3164 -84.3308 356° North 268 308 25,000  Level Indianapolis Center
09:48AM 39.3914 -84.3381 356° North 268 308 25,000  Level Indianapolis Center
09:49AM 39.4656 -84.3450 356° North 266 306 25,000  Level Indianapolis Center
09:50AM 39.5528 -84.3528 356° North 266 306 25,000  Level Indianapolis Center
09:51AM 39.6292 -84.3597 356° North 269 310 25,000  Level Indianapolis Center
09:52AM 39.7053 -84.3669 356° North 272 313 25,000  Level Indianapolis Center
09:53AM 39.7800 -84.3739 356° North 268 308 25,000  Level Indianapolis Center
09:54AM 39.8553 -84.3819 355° North 268 308 25,000 -120 Level Indianapolis Center
09:55AM 39.9297 -84.3875 357° North 266 306 24,800 -540 Descending Indianapolis Center
09:57AM 40.0044 -84.3961 355° North 266 306 24,000 -780 Descending Indianapolis Center
09:58AM 40.0803 -84.3878 North 269 310 23,300 -720 Descending Indianapolis Center
09:59AM 40.1519 -84.3753 North 262 302 22,600 -840 Descending Indianapolis Center
10:00AM 40.2378 -84.3617 North 261 300 21,600 -780 Descending Indianapolis Center
10:01AM 40.3094 -84.3500 North 256 295 21,000 -300 Descending Indianapolis Center
10:02AM 40.3778 -84.3386 North 247 284 21,000  Level Indianapolis Center
10:03AM 40.4506 -84.3256 North 260 299 21,000  Level Indianapolis Center
10:04AM 40.5228 -84.3158 North 257 296 21,000 -420 Level Indianapolis Center
10:05AM 40.5942 -84.3025 North 257 296 20,200 -780 Descending Indianapolis Center
10:06AM 40.6656 -84.2914 North 256 295 19,500 -840 Descending Indianapolis Center
10:07AM 40.7492 -84.2783 North 255 293 18,500 -1,260 Descending Indianapolis Center
10:08AM 40.8231 -84.2656 North 265 305 16,900 -780 Descending Indianapolis Center
10:09AM 40.8978 -84.2528 North 268 308 16,900  Level Indianapolis Center
10:10AM 40.9694 -84.2408 North 260 299 16,900 -480 Level Cleveland Center
10:11AM 41.0428 -84.2286 North 260 299 16,000 -1,380 Descending Cleveland Center
10:12AM 41.1161 -84.2186 North 260 299 14,200 -1,800 Descending Cleveland Center
10:13AM 41.1875 -84.2061 North 255 293 12,500 -1,800 Descending Cleveland Center
10:14AM 41.2547 -84.1933 North 255 293 10,700 -1,920 Descending Cleveland Center
10:15AM 41.2925 -84.1181 56° Northeast 226 260 8,700 -1,860 Descending Cleveland Center
10:16AM 41.3203 -84.0256 68° East 232 267 7,000 -1,800 Descending Cleveland Center
10:17AM 41.3500 -83.9414 65° Northeast 237 273 5,200 -1,500 Descending Cleveland Center
10:18AM 41.3753 -83.8597 68° East 242 278 4,000 -600 Descending Cleveland Center
10:19AM 41.4003 -83.7833 66° East 232 267 4,000  Level Cleveland Center
10:20AM 41.4336 -83.7131 58° Northeast 227 261 4,000  Level Cleveland Center
10:22AM 41.4765 -83.6730 312° West  Level FlightAware Approximate
10:29AM 41.5833 -83.8000 312° West  Level FlightAware Approximate
10:30AM 41.5868 -83.8078 312° West  Level Estimated
10:31AM 41.5833 -83.8000 312° West  Level FlightAware Approximate
10:32AM 41.5868 -83.8078 312° West  Level Estimated
10:33AM 41.5833 -83.8000 312° West  Level FlightAware Approximate
10:34AM 41.5868 -83.8078 312° West  Level Estimated